International Virtual Aviation Organisation

Russian Federation and Kazakhstan MCD

 
UNOO 300030Z 01002MPS 6000 -SN BKN005 M16/M19 Q1047 R25/390145 NOSIG RMK OBST OBSC QFE777
QNH:(hPa/inHg/mmHg)1047 / 30.92 / 785
QFE:(hPa/inHg/mmHg)1036 / 30.59 / 777
Temperature-16
Dew Point-19
Visibility6000
WeatherLight Snow
Cloud CoverBKN (500);
Transition Height800 m./3000 ft.
Transition LevelFL40
SQUAWK